sensor_id;sensor_type;location;lat;lon;timestamp;pressure;altitude;pressure_sealevel;temperature;humidity
47712;BME280;57457;51.634;5.886;2023-05-20T00:22:29;102100;;;13.0;76.2
47712;BME280;57457;51.634;5.886;2023-05-20T00:45:02;102100;;;12.7;77.8
47712;BME280;57457;51.634;5.886;2023-05-20T01:03:13;102100;;;12.4;78.4
47712;BME280;57457;51.634;5.886;2023-05-20T01:36:27;102100;;;12.1;79.2
47712;BME280;57457;51.634;5.886;2023-05-20T02:21:03;102100;;;12.0;80.1
47712;BME280;57457;51.634;5.886;2023-05-20T03:15:52;102100;;;11.9;81.0
47712;BME280;57457;51.634;5.886;2023-05-20T04:28:57;102000;;;10.4;83.4
47712;BME280;57457;51.634;5.886;2023-05-20T04:47:37;102100;;;10.4;83.2
47712;BME280;57457;51.634;5.886;2023-05-20T05:04:42;102100;;;10.6;81.7
47712;BME280;57457;51.634;5.886;2023-05-20T05:31:23;102000;;;11.2;79.8
47712;BME280;57457;51.634;5.886;2023-05-20T05:58:40;102000;;;12.0;78.4
47712;BME280;57457;51.634;5.886;2023-05-20T06:15:00;102000;;;12.7;77.3
47712;BME280;57457;51.634;5.886;2023-05-20T06:30:24;102000;;;13.4;75.4
47712;BME280;57457;51.634;5.886;2023-05-20T06:46:36;102000;;;14.1;72.2
47712;BME280;57457;51.634;5.886;2023-05-20T07:03:12;102000;;;14.6;71.5
47712;BME280;57457;51.634;5.886;2023-05-20T07:21:12;102000;;;15.2;70.0
47712;BME280;57457;51.634;5.886;2023-05-20T07:36:50;102000;;;15.8;67.4
47712;BME280;57457;51.634;5.886;2023-05-20T07:49:56;102000;;;16.3;66.2
47712;BME280;57457;51.634;5.886;2023-05-20T08:04:39;102000;;;16.6;64.7
47712;BME280;57457;51.634;5.886;2023-05-20T08:19:26;102000;;;16.9;63.6
47712;BME280;57457;51.634;5.886;2023-05-20T08:36:34;101900;;;17.2;61.0
47712;BME280;57457;51.634;5.886;2023-05-20T08:54:24;101900;;;17.6;60.8
47712;BME280;57457;51.634;5.886;2023-05-20T09:12:05;101900;;;18.2;57.1
47712;BME280;57457;51.634;5.886;2023-05-20T09:28:43;101900;;;19.0;55.7
47712;BME280;57457;51.634;5.886;2023-05-20T09:43:51;101900;;;19.5;55.2
47712;BME280;57457;51.634;5.886;2023-05-20T09:59:05;101900;;;20.0;52.8
47712;BME280;57457;51.634;5.886;2023-05-20T10:16:30;101900;;;20.8;53.5
47712;BME280;57457;51.634;5.886;2023-05-20T10:34:28;101900;;;20.9;52.0
47712;BME280;57457;51.634;5.886;2023-05-20T10:51:23;101900;;;21.4;53.6
47712;BME280;57457;51.634;5.886;2023-05-20T11:10:38;101900;;;21.4;52.8
47712;BME280;57457;51.634;5.886;2023-05-20T11:47:29;101800;;;21.6;53.5
47712;BME280;57457;51.634;5.886;2023-05-20T12:09:58;101800;;;21.6;54.6
47712;BME280;57457;51.634;5.886;2023-05-20T12:26:34;101800;;;21.5;54.8
47712;BME280;57457;51.634;5.886;2023-05-20T12:41:23;101800;;;21.7;52.6
47712;BME280;57457;51.634;5.886;2023-05-20T12:55:09;101800;;;21.9;52.0
47712;BME280;57457;51.634;5.886;2023-05-20T13:09:38;101800;;;22.0;53.9
47712;BME280;57457;51.634;5.886;2023-05-20T14:15:14;101700;;;22.0;53.0
47712;BME280;57457;51.634;5.886;2023-05-20T14:53:30;101700;;;22.1;51.2
47712;BME280;57457;51.634;5.886;2023-05-20T15:14:26;101700;;;22.2;51.2
47712;BME280;57457;51.634;5.886;2023-05-20T15:29:08;101700;;;22.2;51.0
47712;BME280;57457;51.634;5.886;2023-05-20T15:51:51;101700;;;22.2;51.8
47712;BME280;57457;51.634;5.886;2023-05-20T16:23:03;101600;;;21.9;54.5
47712;BME280;57457;51.634;5.886;2023-05-20T17:18:45;101600;;;21.7;55.6
47712;BME280;57457;51.634;5.886;2023-05-20T17:54:30;101600;;;21.3;54.7
47712;BME280;57457;51.634;5.886;2023-05-20T18:30:52;101600;;;19.2;57.6
47712;BME280;57457;51.634;5.886;2023-05-20T18:52:38;101600;;;19.2;59.7
47712;BME280;57457;51.634;5.886;2023-05-20T19:14:09;101600;;;18.9;61.4
47712;BME280;57457;51.634;5.886;2023-05-20T20:36:37;101700;;;18.0;73.3
47712;BME280;57457;51.634;5.886;2023-05-20T21:15:01;101700;;;17.0;77.6
47712;BME280;57457;51.634;5.886;2023-05-20T21:48:47;101700;;;16.0;79.4
47712;BME280;57457;51.634;5.886;2023-05-20T22:19:13;101600;;;15.1;80.9
47712;BME280;57457;51.634;5.886;2023-05-20T22:41:30;101600;;;14.4;81.6
47712;BME280;57457;51.634;5.886;2023-05-20T23:00:49;101600;;;13.8;82.1
47712;BME280;57457;51.634;5.886;2023-05-20T23:18:17;101600;;;13.3;82.6
47712;BME280;57457;51.634;5.886;2023-05-20T23:40:07;101600;;;12.8;82.9
